Rio Grande, Texas
Current Conditions -  °F | °C
As of 12:15 PM on Thursday 18 Dec 2014 (Local Time) from KEBG Reporting Station
Haze Haze  
Wind Chill: 71°   Ceiling: 2900
Heat Index: 71°   Visibility: 5mi
Dew Point: 65°   Wind: 3mph
Humidity: 82%   Direction: 260°W
Pressure: 30.05"   Gusts: NA
Location:  26.5735°N, 98.695°W
Report Text: KEBG 181815Z AUTO 26003KT 5SM HZ SCT013 BKN029 OVC047 22/19 A3005 RMK AO2 T02170185
Loading
Personal Weather Stations






























Interactive Weather Map New forecast layout! Learn more

10-Day Weather Forecast

Advertisements
Track Severe Weather on mobile